Time;durP1;ratioP1;P1;durP2;ratioP2;P2;SDS_P1;SDS_P2;PMS_P1;PMS_P2;Temp;Humidity;BMP_temperature;BMP_pressure;BME280_temperature;BME280_humidity;BME280_pressure;Samples;Min_cycle;Max_cycle;Signal;HPM_P1;HPM_P2
2020/12/26 00:01:55;;;;;;;5.62;5.08;;;;;;;4.74;79.25;100456.10;1765716;81;21033;-77
2020/12/26 00:04:24;;;;;;;5.00;4.42;;;;;;;4.70;79.23;100446.73;1767326;81;21104;-78
2020/12/26 00:06:53;;;;;;;5.45;4.95;;;;;;;4.68;79.46;100438.15;1765749;81;21029;-77
2020/12/26 00:09:22;;;;;;;5.90;5.20;;;;;;;4.72;79.78;100441.48;1767441;81;21041;-78
2020/12/26 00:11:51;;;;;;;6.17;5.33;;;;;;;4.76;79.64;100436.11;1765640;81;21100;-79
2020/12/26 00:14:19;;;;;;;6.25;5.20;;;;;;;4.81;79.83;100432.49;1765639;81;21428;-76
2020/12/26 00:16:47;;;;;;;7.67;5.33;;;;;;;4.91;79.70;100429.91;1765685;81;20962;-77
2020/12/26 00:19:17;;;;;;;6.67;5.85;;;;;;;5.00;79.48;100434.73;1731672;82;20969;-78
2020/12/26 00:21:45;;;;;;;8.68;5.75;;;;;;;5.05;79.02;100433.28;1724954;82;21160;-78
2020/12/26 00:24:13;;;;;;;5.50;4.83;;;;;;;5.06;78.87;100434.95;1762787;81;21140;-78
2020/12/26 00:26:41;;;;;;;6.62;4.95;;;;;;;5.07;78.67;100436.20;1754647;81;21468;-77
2020/12/26 00:29:10;;;;;;;5.87;4.83;;;;;;;5.06;78.56;100429.76;1754536;81;21061;-78
2020/12/26 00:31:38;;;;;;;11.68;7.35;;;;;;;5.03;78.54;100429.89;1754945;80;21034;-78
2020/12/26 00:34:06;;;;;;;15.23;9.30;;;;;;;4.98;78.60;100423.58;1754668;81;21141;-78
2020/12/26 00:36:37;;;;;;;15.68;9.33;;;;;;;4.96;78.52;100424.94;1754611;81;21001;-80
2020/12/26 00:39:05;;;;;;;15.08;9.55;;;;;;;4.93;78.55;100422.44;1754736;81;20979;-79
2020/12/26 00:41:33;;;;;;;11.12;7.50;;;;;;;4.94;78.69;100432.41;1754630;81;20966;-79
2020/12/26 00:44:01;;;;;;;7.55;6.35;;;;;;;4.97;78.67;100421.88;1754702;81;21157;-79
2020/12/26 00:46:29;;;;;;;7.28;6.08;;;;;;;5.04;78.57;100428.97;1754644;81;21804;-78
2020/12/26 00:48:57;;;;;;;9.35;7.25;;;;;;;5.07;78.48;100436.20;1754649;81;21002;-77
2020/12/26 00:51:25;;;;;;;52.62;25.45;;;;;;;5.09;78.37;100436.13;1728301;81;21018;-77
2020/12/26 00:53:53;;;;;;;87.37;34.20;;;;;;;5.10;78.26;100451.66;1754934;81;21451;-78
2020/12/26 00:56:21;;;;;;;54.08;22.93;;;;;;;5.11;77.81;100452.08;1754648;81;21021;-78
2020/12/26 00:58:48;;;;;;;24.52;14.23;;;;;;;5.03;77.66;100456.72;1754714;81;21114;-78
2020/12/26 01:01:17;;;;;;;36.60;17.80;;;;;;;4.94;77.68;100457.92;1754646;81;21412;-77
2020/12/26 01:04:01;;;;;;;22.50;14.20;;;;;;;4.87;77.77;100445.22;1890182;76;22586;-76
2020/12/26 01:06:29;;;;;;;20.68;10.93;;;;;;;4.80;77.91;100450.27;1827875;77;21005;-76
2020/12/26 01:08:57;;;;;;;28.52;16.45;;;;;;;4.77;78.21;100447.34;1791280;78;22130;-76
2020/12/26 01:11:25;;;;;;;32.98;18.82;;;;;;;4.80;78.40;100441.17;1759897;80;21471;-76
2020/12/26 01:13:53;;;;;;;20.92;12.85;;;;;;;4.85;78.38;100429.71;1791153;78;20920;-75
2020/12/26 01:16:21;;;;;;;14.38;9.40;;;;;;;4.92;78.25;100424.66;1791304;78;21000;-76
2020/12/26 01:18:48;;;;;;;8.80;7.75;;;;;;;4.97;78.09;100421.88;1791534;78;21035;-76
2020/12/26 01:21:17;;;;;;;7.22;6.53;;;;;;;4.99;77.94;100413.11;1791239;78;21170;-77
2020/12/26 01:23:45;;;;;;;7.50;6.65;;;;;;;5.03;77.73;100409.10;1791224;78;21445;-77
2020/12/26 01:26:14;;;;;;;6.10;5.60;;;;;;;5.04;77.61;100416.81;1791192;78;20955;-76
2020/12/26 01:28:44;;;;;;;8.35;6.53;;;;;;;5.04;77.61;100415.97;1791321;78;20955;-76
2020/12/26 01:31:13;;;;;;;8.40;7.28;;;;;;;5.04;77.63;100420.71;1791373;78;21378;-76
2020/12/26 01:33:41;;;;;;;9.75;8.30;;;;;;;5.06;77.56;100418.91;1791207;78;21152;-77
2020/12/26 01:36:12;;;;;;;12.10;8.60;;;;;;;5.08;77.44;100415.79;1791152;78;21042;-78
2020/12/26 01:38:41;;;;;;;13.22;9.93;;;;;;;5.08;77.31;100421.45;1791217;78;21015;-77
2020/12/26 01:41:10;;;;;;;28.70;20.23;;;;;;;5.07;77.13;100420.61;1791268;78;21027;-76
2020/12/26 01:43:39;;;;;;;62.00;34.23;;;;;;;5.06;76.96;100427.16;1791328;78;21543;-77
2020/12/26 01:46:07;;;;;;;40.23;22.80;;;;;;;4.98;76.76;100432.67;1791178;78;22466;-76
2020/12/26 01:48:35;;;;;;;32.35;19.42;;;;;;;4.90;77.07;100439.45;1791365;78;20968;-78
2020/12/26 01:51:03;;;;;;;31.35;17.30;;;;;;;4.83;77.15;100440.61;1791197;78;20996;-78
2020/12/26 01:53:31;;;;;;;22.87;15.00;;;;;;;4.81;77.18;100445.48;1791189;78;21154;-77
2020/12/26 01:56:00;;;;;;;32.13;20.15;;;;;;;4.75;77.18;100442.66;1766085;78;21019;-78
2020/12/26 01:58:28;;;;;;;31.33;18.45;;;;;;;4.68;77.31;100434.71;1791318;78;21160;-79
2020/12/26 02:00:56;;;;;;;21.57;15.10;;;;;;;4.64;77.42;100427.94;1791174;78;21020;-79
2020/12/26 02:03:24;;;;;;;16.62;10.08;;;;;;;4.62;77.44;100436.23;1791178;78;20944;-77
2020/12/26 02:05:54;;;;;;;18.10;10.93;;;;;;;4.56;77.38;100441.23;1791299;78;21509;-76
2020/12/26 02:08:22;;;;;;;16.57;10.70;;;;;;;4.46;77.73;100437.28;1791548;78;20972;-78
2020/12/26 02:10:50;;;;;;;20.75;13.85;;;;;;;4.43;78.15;100443.44;1791370;78;20987;-77
2020/12/26 02:13:19;;;;;;;54.53;34.63;;;;;;;4.44;78.00;100436.48;1790937;78;21007;-76
2020/12/26 02:16:05;;;;;;;64.22;40.98;;;;;;;4.43;78.18;100445.20;1790538;78;20924;-76
2020/12/26 02:18:35;;;;;;;32.63;20.95;;;;;;;4.44;78.16;100442.98;1790515;78;20952;-77
2020/12/26 02:21:04;;;;;;;26.57;16.23;;;;;;;4.45;78.03;100439.49;1790620;78;20948;-77
2020/12/26 02:23:34;;;;;;;25.65;15.38;;;;;;;4.44;78.06;100443.81;1765145;78;21402;-76
2020/12/26 02:26:02;;;;;;;26.82;15.70;;;;;;;4.42;78.12;100446.08;1790641;78;20960;-77
2020/12/26 02:28:31;;;;;;;27.93;15.28;;;;;;;4.42;78.48;100446.92;1790758;78;21016;-77
2020/12/26 02:30:59;;;;;;;32.53;16.25;;;;;;;4.49;78.62;100447.11;1791943;78;20964;-74
2020/12/26 02:33:27;;;;;;;28.38;16.48;;;;;;;4.59;78.46;100451.48;1793610;78;21059;-75
2020/12/26 02:35:54;;;;;;;29.87;14.90;;;;;;;4.64;78.27;100458.64;1792626;78;21394;-77
2020/12/26 02:38:22;;;;;;;31.85;15.68;;;;;;;4.66;77.99;100458.14;1791834;78;21362;-76
2020/12/26 02:40:50;;;;;;;47.03;24.37;;;;;;;4.67;77.62;100456.38;1791276;78;21023;-75
2020/12/26 02:43:20;;;;;;;34.98;19.65;;;;;;;4.63;77.59;100457.42;1790566;78;21016;-76
2020/12/26 02:45:50;;;;;;;30.35;18.02;;;;;;;4.58;77.59;100451.11;1790600;78;20989;-77
2020/12/26 02:48:18;;;;;;;33.85;17.00;;;;;;;4.50;77.75;100452.68;1791223;78;21523;-78
2020/12/26 02:50:49;;;;;;;32.53;17.73;;;;;;;4.41;77.95;100450.44;1789672;78;21011;-77
2020/12/26 02:53:17;;;;;;;34.70;16.00;;;;;;;4.36;78.33;100453.20;1790651;78;21497;-77
2020/12/26 02:55:45;;;;;;;32.78;15.88;;;;;;;4.36;78.53;100456.26;1791283;78;20948;-78
2020/12/26 02:58:14;;;;;;;29.27;16.60;;;;;;;4.38;78.50;100462.67;1792997;78;20944;-76
2020/12/26 03:00:42;;;;;;;29.12;15.95;;;;;;;4.38;78.20;100459.64;1791417;78;21148;-78
2020/12/26 03:03:10;;;;;;;31.55;15.65;;;;;;;4.29;78.16;100456.06;1790811;78;20952;-79
2020/12/26 03:05:40;;;;;;;30.32;15.75;;;;;;;4.22;78.52;100466.28;1790863;78;21027;-77
2020/12/26 03:08:08;;;;;;;32.15;18.30;;;;;;;4.21;78.84;100472.39;1790622;78;21047;-77
2020/12/26 03:10:37;;;;;;;35.80;19.07;;;;;;;4.22;78.88;100477.50;1790774;78;21051;-78
2020/12/26 03:13:06;;;;;;;30.52;17.25;;;;;;;4.19;78.74;100465.95;1790962;78;20963;-78
2020/12/26 03:15:34;;;;;;;32.93;17.67;;;;;;;4.19;78.95;100473.73;1790465;78;20959;-76
2020/12/26 03:18:02;;;;;;;34.38;19.00;;;;;;;4.24;79.02;100475.70;1791049;78;20980;-78
2020/12/26 03:20:30;;;;;;;36.13;20.10;;;;;;;4.27;78.82;100474.31;1790878;78;21476;-77
2020/12/26 03:22:59;;;;;;;30.82;18.65;;;;;;;4.27;78.70;100466.52;1790861;78;20992;-77
2020/12/26 03:25:28;;;;;;;30.12;17.80;;;;;;;4.32;78.75;100460.70;1791159;78;21159;-78
2020/12/26 03:27:56;;;;;;;33.48;20.82;;;;;;;4.36;78.81;100454.50;1791654;78;20988;-77
2020/12/26 03:30:24;;;;;;;33.53;19.23;;;;;;;4.41;78.76;100459.98;1790719;78;21023;-77
2020/12/26 03:32:52;;;;;;;31.35;18.07;;;;;;;4.45;78.64;100465.00;1790567;78;20971;-77
2020/12/26 03:35:19;;;;;;;29.77;18.65;;;;;;;4.48;78.24;100470.52;1790752;78;21538;-77
2020/12/26 03:37:48;;;;;;;28.07;17.60;;;;;;;4.44;77.99;100474.13;1790718;78;22613;-77
2020/12/26 03:40:16;;;;;;;24.65;15.78;;;;;;;4.32;78.10;100469.78;1790733;78;21354;-77
2020/12/26 03:42:44;;;;;;;25.45;15.88;;;;;;;4.29;78.38;100463.42;1790471;78;20969;-76
2020/12/26 03:45:13;;;;;;;23.87;14.78;;;;;;;4.33;78.35;100465.44;1790418;78;20952;-77
2020/12/26 03:47:41;;;;;;;24.82;15.90;;;;;;;4.32;78.28;100467.19;1790590;78;20964;-78
2020/12/26 03:50:09;;;;;;;23.75;15.30;;;;;;;4.28;78.33;100483.78;1790639;78;21216;-77
2020/12/26 03:52:37;;;;;;;22.80;14.85;;;;;;;4.25;78.04;100480.47;1790744;78;20983;-78
2020/12/26 03:55:06;;;;;;;25.25;16.05;;;;;;;4.08;78.03;100463.73;1765161;78;20933;-78
2020/12/26 03:57:33;;;;;;;22.07;15.13;;;;;;;4.05;78.44;100460.42;1790572;78;21377;-78
2020/12/26 04:00:02;;;;;;;21.65;15.20;;;;;;;4.03;78.72;100455.27;1790642;78;20952;-76
2020/12/26 04:02:32;;;;;;;21.15;14.75;;;;;;;4.05;78.68;100472.94;1787188;78;21236;-78
2020/12/26 04:05:03;;;;;;;20.82;14.93;;;;;;;4.09;78.63;100488.80;1745712;80;21020;-78
2020/12/26 04:07:31;;;;;;;20.82;14.05;;;;;;;4.09;78.42;100495.70;1745741;80;21036;-77
2020/12/26 04:09:59;;;;;;;19.52;14.20;;;;;;;3.99;78.43;100502.98;1745637;80;21045;-78
2020/12/26 04:12:27;;;;;;;24.80;15.40;;;;;;;3.93;78.73;100504.48;1790352;79;20958;-77
2020/12/26 04:14:55;;;;;;;24.43;15.03;;;;;;;3.86;78.57;100512.92;1790375;79;21624;-79
2020/12/26 04:17:23;;;;;;;22.98;14.95;;;;;;;3.80;78.71;100518.77;1790289;79;20966;-78
2020/12/26 04:19:52;;;;;;;23.57;16.17;;;;;;;3.74;78.91;100523.27;1818042;79;21429;-78
2020/12/26 04:22:21;;;;;;;25.00;15.88;;;;;;;3.73;78.99;100525.48;1790271;79;21451;-76
2020/12/26 04:24:49;;;;;;;23.02;15.83;;;;;;;3.72;78.96;100518.58;1790218;79;21415;-78
2020/12/26 04:27:17;;;;;;;20.48;14.10;;;;;;;3.71;79.10;100521.22;1790142;79;20998;-78
2020/12/26 04:29:45;;;;;;;24.60;15.78;;;;;;;3.73;79.16;100529.37;1790279;79;21499;-78
2020/12/26 04:32:14;;;;;;;22.17;15.18;;;;;;;3.75;79.05;100538.37;1790146;77;20951;-78
2020/12/26 04:34:48;;;;;;;22.65;16.02;;;;;;;3.73;78.77;100542.34;1790346;79;20977;-78
2020/12/26 04:37:16;;;;;;;21.48;14.20;;;;;;;3.69;78.66;100555.00;1790619;79;21472;-77
2020/12/26 04:39:46;;;;;;;20.27;14.10;;;;;;;3.66;78.58;100567.20;1790122;79;21907;-78
2020/12/26 04:42:14;;;;;;;20.80;13.72;;;;;;;3.60;78.35;100573.88;1790134;79;20974;-77
2020/12/26 04:44:44;;;;;;;19.92;12.90;;;;;;;3.52;78.53;100574.97;1817845;79;20954;-77
2020/12/26 04:47:17;;;;;;;18.87;14.53;;;;;;;3.44;78.51;100572.22;1790265;77;21098;-76
2020/12/26 04:49:43;;;;;;;20.32;15.00;;;;;;;3.35;78.77;100573.35;1790098;79;20919;-78
2020/12/26 04:52:11;;;;;;;22.40;14.65;;;;;;;3.28;79.05;100589.53;1740236;79;22098;-78
2020/12/26 04:54:42;;;;;;;19.55;14.50;;;;;;;3.25;79.10;100599.17;1764649;79;20974;-76
2020/12/26 04:57:11;;;;;;;21.37;14.25;;;;;;;3.20;79.24;100596.72;1817848;79;20997;-76
2020/12/26 04:59:40;;;;;;;21.80;15.15;;;;;;;3.18;79.18;100601.09;1790136;79;21004;-76
2020/12/26 05:02:12;;;;;;;19.52;14.78;;;;;;;3.15;78.99;100605.50;1790302;79;21022;-76
2020/12/26 05:04:42;;;;;;;20.50;14.65;;;;;;;3.13;79.15;100603.41;1790541;78;21060;-77
2020/12/26 05:07:11;;;;;;;18.02;13.65;;;;;;;3.09;79.15;100615.16;1790190;78;21477;-76
2020/12/26 05:09:39;;;;;;;21.23;14.85;;;;;;;3.07;79.22;100626.47;1790520;78;20999;-76
2020/12/26 05:12:06;;;;;;;19.60;14.20;;;;;;;3.04;79.28;100629.97;1790375;78;20960;-77
2020/12/26 05:14:34;;;;;;;21.37;15.08;;;;;;;3.05;79.33;100636.87;1790645;78;21023;-77
2020/12/26 05:17:02;;;;;;;20.57;15.25;;;;;;;3.03;79.01;100637.81;1790720;78;21169;-78
2020/12/26 05:19:30;;;;;;;17.50;13.55;;;;;;;2.96;79.11;100642.73;1790411;78;20960;-77
2020/12/26 05:21:58;;;;;;;17.45;12.78;;;;;;;2.95;79.02;100644.48;1790393;78;21500;-77
2020/12/26 05:24:26;;;;;;;13.65;10.48;;;;;;;2.90;78.81;100655.42;1790253;78;20960;-76
2020/12/26 05:26:54;;;;;;;16.60;12.98;;;;;;;2.82;78.90;100663.39;1790321;78;20940;-78
2020/12/26 05:29:22;;;;;;;15.93;12.35;;;;;;;2.76;79.13;100665.30;1790542;78;21709;-77
2020/12/26 05:31:57;;;;;;;16.87;12.47;;;;;;;2.73;79.15;100674.45;1790572;78;21042;-77
2020/12/26 05:34:35;;;;;;;16.40;13.00;;;;;;;2.71;79.28;100680.95;1786869;78;21714;-77
2020/12/26 05:37:03;;;;;;;18.82;12.47;;;;;;;2.72;79.15;100681.83;1790541;78;21493;-78
2020/12/26 05:39:34;;;;;;;20.10;13.58;;;;;;;2.70;79.09;100670.21;1790433;78;20917;-77
2020/12/26 05:42:03;;;;;;;16.10;11.93;;;;;;;2.71;78.80;100668.02;1790621;78;21457;-77
2020/12/26 05:44:37;;;;;;;15.78;11.83;;;;;;;2.71;78.70;100668.02;1822391;78;20951;-77
2020/12/26 05:47:06;;;;;;;17.23;11.65;;;;;;;2.73;78.60;100678.34;1822513;78;21004;-79
2020/12/26 05:49:37;;;;;;;13.40;11.33;;;;;;;2.73;78.42;100682.22;1790379;78;20975;-78
2020/12/26 05:52:13;;;;;;;16.05;12.40;;;;;;;2.72;78.02;100675.36;1790792;78;20939;-78
2020/12/26 05:54:51;;;;;;;15.45;12.50;;;;;;;2.68;78.02;100674.58;1790740;78;21441;-78
2020/12/26 05:57:19;;;;;;;16.32;11.53;;;;;;;2.66;77.81;100677.66;1790492;78;21015;-75
2020/12/26 05:59:53;;;;;;;16.73;12.65;;;;;;;2.63;77.87;100682.47;1790986;78;20941;-78
2020/12/26 06:02:29;;;;;;;15.08;11.55;;;;;;;2.67;77.77;100687.98;1792700;78;21019;-77
2020/12/26 06:05:02;;;;;;;13.68;11.40;;;;;;;2.68;77.41;100690.95;1805877;78;21047;-78
2020/12/26 06:07:36;;;;;;;16.90;12.60;;;;;;;2.63;77.37;100693.28;1806416;78;21042;-80
2020/12/26 06:10:07;;;;;;;14.70;12.25;;;;;;;2.59;77.63;100700.27;1805639;78;20964;-78
2020/12/26 06:12:39;;;;;;;14.65;11.68;;;;;;;2.58;77.51;100699.00;1805156;78;21004;-80
2020/12/26 06:15:08;;;;;;;17.50;13.30;;;;;;;2.56;77.51;100694.33;1804192;78;21003;-78
2020/12/26 06:17:36;;;;;;;19.52;12.30;;;;;;;2.53;77.33;100687.92;1803863;78;20912;-77
2020/12/26 06:20:08;;;;;;;14.65;11.93;;;;;;;2.48;77.45;100694.06;1803672;78;21146;-78
2020/12/26 06:22:49;;;;;;;15.00;12.33;;;;;;;2.44;77.43;100696.77;1803729;78;21381;-80
2020/12/26 06:25:19;;;;;;;15.45;11.80;;;;;;;2.42;77.43;100705.89;1804030;78;20919;-77
2020/12/26 06:27:58;;;;;;;14.43;11.18;;;;;;;2.42;77.56;100702.00;1831821;78;20987;-78
2020/12/26 06:30:28;;;;;;;18.15;11.43;;;;;;;2.41;77.67;100700.28;1803980;78;21496;-78
2020/12/26 06:32:56;;;;;;;16.48;11.20;;;;;;;2.41;77.63;100695.56;1803729;78;21471;-78
2020/12/26 06:35:25;;;;;;;17.55;12.82;;;;;;;2.38;77.81;100695.62;1803912;78;21074;-78
2020/12/26 06:38:16;;;;;;;18.42;13.08;;;;;;;2.38;77.84;100697.78;1803822;78;20939;-78
2020/12/26 06:41:01;;;;;;;20.48;14.55;;;;;;;2.38;77.71;100699.08;1831070;78;21043;-78
2020/12/26 06:43:51;;;;;;;21.95;14.10;;;;;;;2.39;77.98;100702.06;1803718;78;21011;-77
2020/12/26 06:46:28;;;;;;;29.12;16.60;;;;;;;2.46;77.89;100713.95;1803908;78;21989;-76
2020/12/26 06:48:57;;;;;;;76.97;30.20;;;;;;;2.54;77.61;100728.47;1803654;78;20979;-76
2020/12/26 06:51:33;;;;;;;88.25;36.68;;;;;;;2.58;77.48;100727.47;1803813;78;20951;-77
2020/12/26 06:54:03;;;;;;;83.87;32.75;;;;;;;2.59;77.46;100726.15;1804149;78;20963;-78
2020/12/26 06:56:38;;;;;;;73.85;32.50;;;;;;;2.61;77.44;100733.44;1803568;78;21584;-78
2020/12/26 06:59:12;;;;;;;52.27;25.60;;;;;;;2.65;77.34;100745.87;1804607;78;21006;-77
2020/12/26 07:01:45;;;;;;;38.85;21.93;;;;;;;2.72;77.19;100751.30;1803884;78;21007;-80
2020/12/26 07:04:18;;;;;;;39.30;23.30;;;;;;;2.73;77.01;100757.31;1794163;79;20942;-75
2020/12/26 07:06:54;;;;;;;46.02;25.70;;;;;;;2.71;76.89;100757.34;1765332;80;20903;-77
2020/12/26 07:09:44;;;;;;;56.45;26.93;;;;;;;2.73;76.76;100747.80;1765827;80;20966;-78
2020/12/26 07:12:13;;;;;;;65.35;27.73;;;;;;;2.72;76.63;100742.23;1764734;80;21191;-76
2020/12/26 07:14:48;;;;;;;44.75;22.00;;;;;;;2.64;76.49;100737.68;1764459;80;20958;-80
2020/12/26 07:17:25;;;;;;;32.00;19.23;;;;;;;2.56;76.87;100744.36;1740519;80;20959;-81
2020/12/26 07:19:59;;;;;;;23.45;14.40;;;;;;;2.56;77.00;100757.75;1765047;80;21491;-81
2020/12/26 07:22:29;;;;;;;22.50;13.80;;;;;;;2.54;77.01;100760.83;1765562;80;26441;-82
2020/12/26 07:25:03;;;;;;;17.27;11.65;;;;;;;2.49;77.27;100747.55;1764437;80;21622;-82
2020/12/26 07:27:39;;;;;;;15.30;11.28;;;;;;;2.46;77.39;100744.17;1764793;80;21033;-83
2020/12/26 07:30:14;;;;;;;18.75;12.00;;;;;;;2.44;77.47;100742.06;1764547;80;21069;-79
2020/12/26 07:32:53;;;;;;;17.62;11.88;;;;;;;2.47;77.48;100760.13;1764518;80;21372;-81
2020/12/26 07:35:39;;;;;;;15.30;10.60;;;;;;;2.52;77.42;100776.83;1820559;77;23302;-82
2020/12/26 07:38:12;;;;;;;;;;;;;;;2.44;77.61;100788.20;1731629;81;21591;-79
2020/12/26 07:40:46;;;;;;;18.50;12.90;;;;;;;2.45;77.74;100789.91;1783873;79;21169;-84
2020/12/26 07:43:38;;;;;;;15.78;11.95;;;;;;;2.45;77.76;100795.09;1707107;81;21089;-85
2020/12/26 07:46:07;;;;;;;13.55;11.15;;;;;;;2.44;77.75;100793.37;1705836;82;21642;-86
2020/12/26 07:48:35;;;;;;;14.45;10.32;;;;;;;2.42;77.58;100809.41;1715416;81;21089;-87
2020/12/26 07:51:04;;;;;;;12.90;10.32;;;;;;;2.40;77.84;100820.23;1728903;81;20966;-82
2020/12/26 07:53:32;;;;;;;12.75;11.00;;;;;;;2.39;77.81;100824.98;1668736;81;21151;-81
2020/12/26 07:56:02;;;;;;;15.10;9.25;;;;;;;2.41;77.84;100820.63;1729070;81;20974;-83
2020/12/26 08:01:25;;;;;;;13.68;9.83;;;;;;;2.45;78.01;100814.95;1890693;76;21859;-83
2020/12/26 08:04:01;;;;;;;13.83;10.60;;;;;;;2.41;78.13;100818.05;1761627;80;21005;-85
2020/12/26 08:06:34;;;;;;;13.53;10.75;;;;;;;2.42;78.03;100805.95;1792113;78;21203;-84
2020/12/26 08:09:06;;;;;;;13.83;11.95;;;;;;;2.44;78.23;100809.35;1759999;79;21034;-79
2020/12/26 08:11:33;;;;;;;12.37;10.23;;;;;;;2.52;78.24;100811.78;1791300;78;20942;-78
2020/12/26 08:14:01;;;;;;;13.10;10.18;;;;;;;2.59;77.90;100814.17;1760905;80;20975;-84
2020/12/26 08:16:30;;;;;;;9.58;8.50;;;;;;;2.64;77.83;100799.81;1792884;78;21020;-82
2020/12/26 08:19:00;;;;;;;10.98;9.03;;;;;;;2.70;77.84;100799.67;1760899;80;21651;-83
2020/12/26 08:21:29;;;;;;;10.50;8.88;;;;;;;2.75;77.82;100804.73;1791916;78;21002;-85
2020/12/26 08:24:02;;;;;;;10.78;9.15;;;;;;;2.80;77.76;100813.23;1760403;80;20994;-85
2020/12/26 08:26:32;;;;;;;10.63;9.53;;;;;;;2.85;77.55;100816.13;1791964;78;20942;-87
2020/12/26 08:29:05;;;;;;;12.47;9.55;;;;;;;2.90;77.42;100819.90;1760358;80;21108;-84
2020/12/26 08:31:33;;;;;;;10.63;8.68;;;;;;;2.89;77.23;100827.24;1792102;78;21800;-84
2020/12/26 08:34:11;;;;;;;11.28;9.98;;;;;;;2.91;77.01;100833.23;1760716;80;20965;-85
2020/12/26 08:36:49;;;;;;;9.10;8.08;;;;;;;2.92;77.08;100841.89;1791399;78;20934;-86
2020/12/26 08:39:18;;;;;;;10.23;8.80;;;;;;;2.93;77.09;100835.80;1760876;80;21017;-85
2020/12/26 08:41:46;;;;;;;8.95;7.90;;;;;;;2.93;77.21;100835.80;1792213;78;21395;-85
2020/12/26 08:44:15;;;;;;;10.18;8.70;;;;;;;2.98;77.16;100840.41;1760615;80;21178;-82
2020/12/26 08:46:48;;;;;;;12.18;8.60;;;;;;;3.03;77.21;100832.11;1792530;78;20962;-83
2020/12/26 08:49:16;;;;;;;12.03;10.28;;;;;;;3.10;77.12;100821.98;1761083;80;21029;-81
2020/12/26 08:51:47;;;;;;;10.70;8.33;;;;;;;3.16;76.77;100804.11;1791456;78;20966;-80
2020/12/26 08:54:22;;;;;;;8.68;7.78;;;;;;;3.16;76.51;100797.21;1760076;79;21026;-80
2020/12/26 08:56:50;;;;;;;10.03;8.53;;;;;;;3.15;76.49;100789.47;1791667;78;21488;-80
2020/12/26 08:59:28;;;;;;;8.63;7.67;;;;;;;3.14;76.51;100800.29;1759929;80;21002;-83
2020/12/26 09:01:56;;;;;;;10.35;8.60;;;;;;;3.13;76.69;100805.50;1799527;78;21466;-79
2020/12/26 09:04:30;;;;;;;10.23;8.80;;;;;;;3.18;76.72;100809.69;1767534;79;21092;-77
2020/12/26 09:07:01;;;;;;;10.88;9.05;;;;;;;3.26;76.52;100810.31;1799863;78;21018;-85
2020/12/26 09:09:29;;;;;;;10.75;9.20;;;;;;;3.29;76.37;100811.97;1767785;80;21629;-82
2020/12/26 09:14:59;;;;;;;11.75;9.45;;;;;;;3.46;76.17;100816.25;1846174;76;23303;-80
2020/12/26 09:17:30;;;;;;;10.50;8.83;;;;;;;3.49;76.01;100816.61;1814533;79;20931;-81
2020/12/26 09:19:59;;;;;;;10.98;8.58;;;;;;;3.52;75.83;100800.98;1786359;79;21952;-82
2020/12/26 09:22:29;;;;;;;10.40;9.28;;;;;;;3.53;75.60;100803.55;1787244;77;20994;-83
2020/12/26 09:25:00;;;;;;;11.78;8.80;;;;;;;3.52;75.52;100809.61;1786536;79;20950;-83
2020/12/26 09:27:29;;;;;;;13.83;11.10;;;;;;;3.52;75.56;100810.06;1764137;79;20962;-83
2020/12/26 09:30:05;;;;;;;13.32;10.13;;;;;;;3.56;75.63;100803.91;1764922;79;21013;-78
2020/12/26 09:32:35;;;;;;;9.25;8.10;;;;;;;3.64;75.49;100803.67;1789429;79;22032;-78
2020/12/26 09:35:18;;;;;;;11.88;8.50;;;;;;;3.71;75.51;100800.88;1788030;79;21045;-76
2020/12/26 09:37:55;;;;;;;13.03;9.20;;;;;;;3.79;75.43;100816.66;1790226;79;20950;-78
2020/12/26 09:40:32;;;;;;;9.90;8.75;;;;;;;3.86;75.20;100819.02;1790207;77;21050;-78
2020/12/26 09:43:00;;;;;;;11.10;8.38;;;;;;;3.93;74.85;100826.17;1788235;79;20946;-78
2020/12/26 09:45:28;;;;;;;9.88;8.88;;;;;;;3.98;74.76;100828.63;1787601;79;21628;-79
2020/12/26 09:47:57;;;;;;;11.68;9.58;;;;;;;4.02;74.59;100828.95;1785344;79;21570;-80
2020/12/26 09:50:26;;;;;;;9.75;8.15;;;;;;;4.05;74.54;100824.98;1785481;79;20970;-80
2020/12/26 09:52:54;;;;;;;9.88;8.60;;;;;;;4.07;74.27;100823.17;1786720;79;20985;-82
2020/12/26 09:55:24;;;;;;;10.45;8.05;;;;;;;4.08;74.20;100829.63;1786690;79;20973;-78
2020/12/26 09:57:52;;;;;;;10.10;7.05;;;;;;;4.08;74.11;100835.27;1786979;79;20987;-76
2020/12/26 10:00:21;;;;;;;9.65;8.05;;;;;;;4.06;74.20;100847.44;1786612;78;21476;-75
2020/12/26 10:02:49;;;;;;;9.75;7.65;;;;;;;4.04;74.21;100839.69;1786402;79;21329;-74
2020/12/26 10:05:19;;;;;;;10.25;8.85;;;;;;;4.05;74.43;100814.61;1786176;79;20966;-75
2020/12/26 10:07:47;;;;;;;8.85;7.95;;;;;;;4.07;74.37;100799.39;1786270;79;21034;-75
2020/12/26 10:10:15;;;;;;;8.35;7.15;;;;;;;4.09;73.98;100804.52;1786217;79;22148;-74
2020/12/26 10:12:43;;;;;;;9.30;8.35;;;;;;;4.07;74.08;100806.30;1785536;78;21564;-77
2020/12/26 10:15:11;;;;;;;8.50;7.70;;;;;;;4.08;74.09;100797.64;1805208;78;20898;-75
2020/12/26 10:17:40;;;;;;;8.05;7.25;;;;;;;4.12;74.27;100796.66;1805186;78;21361;-76
2020/12/26 10:20:13;;;;;;;9.45;8.35;;;;;;;4.15;74.32;100796.09;1805033;78;20938;-75
2020/12/26 10:22:43;;;;;;;8.90;7.80;;;;;;;4.19;74.07;100780.45;1805118;78;22644;-77
2020/12/26 10:25:12;;;;;;;8.98;7.67;;;;;;;4.20;73.98;100776.48;1832511;78;21016;-76
2020/12/26 10:27:40;;;;;;;11.50;8.60;;;;;;;4.22;73.54;100788.12;1804404;78;20990;-77
2020/12/26 10:30:08;;;;;;;11.05;9.00;;;;;;;4.22;73.37;100801.95;1804536;78;20934;-77
2020/12/26 10:32:36;;;;;;;10.45;9.28;;;;;;;4.19;73.44;100809.84;1804535;78;20985;-75
2020/12/26 10:35:06;;;;;;;8.90;7.80;;;;;;;4.21;73.29;100822.33;1787506;79;21400;-79
2020/12/26 10:37:36;;;;;;;8.43;7.62;;;;;;;4.18;73.01;100834.11;1810305;78;20990;-76
2020/12/26 10:42:24;;;;;;;9.75;7.97;;;;;;;4.02;73.31;100841.92;1845944;77;22747;-76
2020/12/26 10:44:58;;;;;;;10.95;8.80;;;;;;;3.88;73.76;100849.66;1793633;78;20913;-78
2020/12/26 10:47:27;;;;;;;10.45;8.50;;;;;;;3.84;73.86;100834.23;1793763;78;21055;-77
2020/12/26 10:49:57;;;;;;;12.60;9.88;;;;;;;3.83;74.07;100835.98;1823494;78;21043;-77
2020/12/26 10:52:25;;;;;;;10.70;8.45;;;;;;;3.87;74.10;100844.54;1793847;78;20920;-76
2020/12/26 10:54:53;;;;;;;12.60;10.30;;;;;;;3.92;73.96;100847.84;1793737;78;21389;-79
2020/12/26 10:57:21;;;;;;;13.10;9.73;;;;;;;3.89;73.99;100856.56;1793929;78;20913;-79
2020/12/26 10:59:53;;;;;;;16.57;12.15;;;;;;;3.92;74.24;100865.55;1793938;78;20990;-80
2020/12/26 11:02:21;;;;;;;11.05;8.43;;;;;;;3.92;74.55;100862.11;1768389;78;21365;-76
2020/12/26 11:04:49;;;;;;;11.35;7.87;;;;;;;3.96;74.67;100861.13;1794035;78;21011;-78
2020/12/26 11:07:17;;;;;;;8.40;6.95;;;;;;;4.05;74.61;100866.05;1794026;78;21055;-78
2020/12/26 11:09:46;;;;;;;8.03;7.05;;;;;;;4.15;74.15;100890.83;1794418;78;20979;-77
2020/12/26 11:12:14;;;;;;;7.78;6.97;;;;;;;4.13;73.41;100888.72;1794568;78;22175;-77
2020/12/26 11:14:42;;;;;;;9.63;7.65;;;;;;;4.10;73.58;100891.87;1794002;78;21338;-78
2020/12/26 11:17:13;;;;;;;9.93;7.03;;;;;;;4.04;73.66;100895.93;1793907;78;21638;-75
2020/12/26 11:19:41;;;;;;;7.05;6.45;;;;;;;3.99;74.03;100893.47;1794220;78;21020;-78
2020/12/26 11:22:09;;;;;;;8.03;7.12;;;;;;;4.02;74.19;100882.98;1793883;78;21000;-77
2020/12/26 11:24:37;;;;;;;6.65;6.05;;;;;;;4.08;74.13;100887.17;1793983;78;21082;-78
2020/12/26 11:27:05;;;;;;;7.12;6.10;;;;;;;4.13;74.16;100886.12;1793854;78;20971;-78
2020/12/26 11:29:33;;;;;;;7.22;6.50;;;;;;;4.22;73.91;100891.50;1793931;78;21122;-79
2020/12/26 11:32:05;;;;;;;7.28;6.55;;;;;;;4.27;73.73;100894.83;1793920;78;20955;-79
2020/12/26 11:34:33;;;;;;;8.53;6.30;;;;;;;4.35;73.45;100895.88;1794176;78;20932;-81
2020/12/26 11:37:01;;;;;;;14.93;11.25;;;;;;;4.36;73.18;100893.25;1793890;78;20997;-82
2020/12/26 11:39:30;;;;;;;8.68;7.78;;;;;;;4.28;73.13;100906.90;1793772;78;21038;-77
2020/12/26 11:41:58;;;;;;;32.40;18.60;;;;;;;4.24;73.17;100923.45;1786480;79;20992;-78
2020/12/26 11:44:26;;;;;;;17.85;13.53;;;;;;;4.19;73.02;100914.95;1783471;79;20980;-79